Cold Bay, Alaska
Current Conditions -  °F | °C
As of 1:28 AM on Saturday 22 Nov 2014 (Local Time) from PACD Reporting Station
Overcast Overcast  
Wind Chill: 33°   Ceiling: 3200
Heat Index: 39°   Visibility: 10mi
Dew Point: 38°   Wind: 8mph
Humidity: 96%   Direction: 20°NNE
Pressure: 28.61"   Gusts: NA
Location:  55.18°N, 162.72°W
Report Text: PACD 221028Z 02007KT 10SM SCT026 OVC032 04/03 A2861 RMK AO2 RAE26 P0000 T00390033 $
Loading
Personal Weather Stations






























Interactive Weather Map New forecast layout! Learn more

10-Day Weather Forecast

Advertisements
Track Severe Weather on mobile